createdAt,value
2022-10-05T00:02:35.369Z,99932.25
2022-10-05T00:05:32.555Z,99943.63
2022-10-05T00:08:21.600Z,99934.88
2022-10-05T00:11:08.374Z,99935.72
2022-10-05T00:13:53.786Z,99915.53
2022-10-05T00:16:39.191Z,99923.34
2022-10-05T00:19:37.135Z,99912.94
2022-10-05T00:22:24.058Z,99913.84
2022-10-05T00:25:19.305Z,99901.66
2022-10-05T00:28:16.942Z,99909.59
2022-10-05T00:31:15.127Z,99922.75
2022-10-05T00:34:00.489Z,99921.91
2022-10-05T00:36:46.149Z,99917.59
2022-10-05T00:39:32.786Z,99914.19
2022-10-05T00:42:44.316Z,99911.66
2022-10-05T00:45:36.038Z,99910.81
2022-10-05T00:48:37.243Z,99904.78
2022-10-05T00:51:33.825Z,99899.53
2022-10-05T00:54:46.242Z,99895.28
2022-10-05T00:57:50.044Z,99897.06
2022-10-05T01:00:47.106Z,99896.22
2022-10-05T01:04:09.584Z,99904.97
2022-10-05T01:07:01.131Z,99906.72
2022-10-05T01:10:04.415Z,99905.03
2022-10-05T01:13:07.590Z,99920.75
2022-10-05T01:16:26.827Z,99907.69
2022-10-05T01:19:48.999Z,99910.31
2022-10-05T01:22:55.826Z,99911.28
2022-10-05T01:26:05.264Z,99918.28
2022-10-05T01:28:56.088Z,99904.38
2022-10-05T01:32:00.325Z,99971.66
2022-10-05T01:35:13.915Z,99952.81
2022-10-05T01:38:18.209Z,99942.97
2022-10-05T01:41:03.671Z,99925.44
2022-10-05T01:43:58.942Z,99919.47
2022-10-05T01:47:00.499Z,99909.19
2022-10-05T01:49:58.085Z,99902.34
2022-10-05T01:52:47.066Z,99905.91
2022-10-05T01:55:48.689Z,99905.94
2022-10-05T01:58:53.227Z,99904.28
2022-10-05T02:02:02.074Z,99912.13
2022-10-05T02:05:01.942Z,99913.13
2022-10-05T02:07:54.742Z,99910.50
2022-10-05T02:10:50.050Z,99901.84
2022-10-05T02:13:41.309Z,99896.59
2022-10-05T02:16:38.688Z,99903.63
2022-10-05T02:19:31.529Z,99899.25
2022-10-05T02:22:38.143Z,99890.53
2022-10-05T02:25:29.626Z,99879.16
2022-10-05T02:28:36.897Z,99894.00
2022-10-05T02:31:28.425Z,99893.16
2022-10-05T02:34:35.991Z,99893.16
2022-10-05T02:38:03.684Z,99894.00
2022-10-05T02:41:19.082Z,99897.47
2022-10-05T02:44:26.008Z,99886.13
2022-10-05T02:47:45.056Z,99887.00
2022-10-05T02:51:01.564Z,99886.13
2022-10-05T02:54:12.527Z,99894.00
2022-10-05T02:57:28.923Z,99904.44
2022-10-05T03:00:20.662Z,99910.53
2022-10-05T03:03:26.285Z,99900.97
2022-10-05T03:06:26.085Z,99907.94
2022-10-05T03:09:16.842Z,99909.63
2022-10-05T03:12:21.126Z,99900.09
2022-10-05T03:15:16.643Z,99906.19
2022-10-05T03:18:08.416Z,99920.13
2022-10-05T03:21:12.223Z,99940.16
2022-10-05T03:24:25.797Z,99942.78
2022-10-05T03:27:32.297Z,99983.75
2022-10-05T03:30:23.879Z,99980.63
2022-10-05T03:33:28.507Z,99977.50
2022-10-05T03:36:42.843Z,99964.91
2022-10-05T03:39:42.124Z,99953.91
2022-10-05T03:42:53.600Z,99942.06
2022-10-05T03:45:55.009Z,99941.34
2022-10-05T03:48:46.582Z,99919.47
2022-10-05T03:51:37.611Z,99922.94
2022-10-05T03:54:30.332Z,99921.38
2022-10-05T03:57:23.623Z,99944.91
2022-10-05T04:00:20.247Z,99944.03
2022-10-05T04:03:27.866Z,99946.59
2022-10-05T04:06:26.572Z,99960.59
2022-10-05T04:09:30.559Z,99940.63
2022-10-05T04:12:24.461Z,99926.72
2022-10-05T04:15:32.451Z,99927.72
2022-10-05T04:18:18.001Z,99934.72
2022-10-05T04:21:30.129Z,99936.47
2022-10-05T04:24:31.141Z,99938.28
2022-10-05T04:27:24.347Z,99927.09
2022-10-05T04:30:19.897Z,99931.56
2022-10-05T04:33:16.147Z,99936.78
2022-10-05T04:36:26.770Z,99935.09
2022-10-05T04:39:27.402Z,99942.06
2022-10-05T04:42:34.628Z,99932.56
2022-10-05T04:45:29.124Z,99923.88
2022-10-05T04:48:35.544Z,99916.09
2022-10-05T04:51:34.676Z,99920.44
2022-10-05T04:54:54.940Z,99919.63
2022-10-05T04:58:02.400Z,99930.06
2022-10-05T05:01:04.723Z,99937.03
2022-10-05T05:04:27.485Z,99956.22
2022-10-05T05:07:42.082Z,99951.06
2022-10-05T05:10:39.709Z,99939.75
2022-10-05T05:13:54.547Z,99948.44
2022-10-05T05:16:42.251Z,99956.31
2022-10-05T05:19:49.858Z,99949.41
2022-10-05T05:22:56.874Z,99942.53
2022-10-05T05:26:18.006Z,99958.19
2022-10-05T05:29:58.423Z,99953.03
2022-10-05T05:33:04.845Z,99962.59
2022-10-05T05:36:13.135Z,99960.00
2022-10-05T05:39:44.565Z,99962.63
2022-10-05T05:43:02.557Z,99957.59
2022-10-05T05:46:14.806Z,99961.09
2022-10-05T05:49:08.088Z,99968.94
2022-10-05T05:52:10.079Z,99966.38
2022-10-05T05:55:08.467Z,99955.94
2022-10-05T05:58:23.776Z,99949.00
2022-10-05T06:01:32.241Z,99946.41
2022-10-05T06:04:43.837Z,99957.66
2022-10-05T06:07:31.901Z,99939.44
2022-10-05T06:10:26.616Z,99942.91
2022-10-05T06:13:34.694Z,99955.94
2022-10-05T06:16:55.520Z,99961.16
2022-10-05T06:19:43.076Z,99958.53
2022-10-05T06:22:41.173Z,99965.47
2022-10-05T06:25:54.774Z,99983.69
2022-10-05T06:28:41.541Z,99980.25
2022-10-05T06:31:33.465Z,99975.00
2022-10-05T06:34:38.473Z,99983.69
2022-10-05T06:37:37.088Z,99988.88
2022-10-05T06:40:48.048Z,99984.56
2022-10-05T06:43:42.541Z,99981.94
2022-10-05T06:47:02.542Z,99988.84
2022-10-05T06:50:34.714Z,99994.94
2022-10-05T06:53:44.793Z,100001.88
2022-10-05T06:56:37.560Z,100012.31
2022-10-05T06:59:44.912Z,100034.03
2022-10-05T07:02:45.469Z,100028.84
2022-10-05T07:05:39.913Z,100031.44
2022-10-05T07:08:39.404Z,100036.69
2022-10-05T07:11:34.310Z,100027.97
2022-10-05T07:14:34.820Z,100033.22
2022-10-05T07:17:36.406Z,100025.41
2022-10-05T07:20:32.321Z,100038.44
2022-10-05T07:23:53.469Z,100045.44
2022-10-05T07:26:47.055Z,100036.72
2022-10-05T07:29:42.289Z,100031.50
2022-10-05T07:32:34.044Z,100022.81
2022-10-05T07:35:53.834Z,100023.69
2022-10-05T07:38:45.501Z,100037.59
2022-10-05T07:41:40.333Z,100025.44
2022-10-05T07:44:34.082Z,100018.47
2022-10-05T07:47:35.845Z,100015.88
2022-10-05T07:50:29.101Z,100013.25
2022-10-05T07:53:37.798Z,100026.28
2022-10-05T07:56:40.969Z,100035.78
2022-10-05T07:59:49.076Z,100042.75
2022-10-05T08:02:45.550Z,100046.25
2022-10-05T08:05:40.850Z,100051.50
2022-10-05T08:08:29.435Z,100061.03
2022-10-05T08:11:19.713Z,100063.63
2022-10-05T08:14:16.758Z,100092.28
2022-10-05T08:17:09.155Z,100093.09
2022-10-05T08:20:23.257Z,100076.56
2022-10-05T08:23:17.980Z,100073.06
2022-10-05T08:26:35.067Z,100098.25
2022-10-05T08:29:23.307Z,100093.00
2022-10-05T08:32:23.120Z,100086.03
2022-10-05T08:35:39.125Z,100087.78
2022-10-05T08:38:32.956Z,100106.84
2022-10-05T08:41:55.820Z,100119.88
2022-10-05T08:45:06.578Z,100116.47
2022-10-05T08:48:20.564Z,100114.72
2022-10-05T08:51:11.853Z,100119.09
2022-10-05T08:54:29.686Z,100117.28
2022-10-05T08:57:43.015Z,100124.25
2022-10-05T09:00:40.883Z,100122.50
2022-10-05T09:03:54.246Z,100122.47
2022-10-05T09:06:52.286Z,100124.13
2022-10-05T09:10:01.702Z,100120.69
2022-10-05T09:12:59.488Z,100122.41
2022-10-05T09:16:09.378Z,100128.44
2022-10-05T09:19:19.301Z,100131.84
2022-10-05T09:22:41.185Z,100150.94
2022-10-05T09:25:44.911Z,100135.28
2022-10-05T09:28:49.108Z,100140.41
2022-10-05T09:32:02.515Z,100149.91
2022-10-05T09:35:09.232Z,100150.72
2022-10-05T09:38:11.369Z,100140.28
2022-10-05T09:41:34.062Z,100154.09
2022-10-05T09:45:01.732Z,100153.22
2022-10-05T09:48:21.968Z,100161.03
2022-10-05T09:51:30.540Z,100160.09
2022-10-05T09:54:37.864Z,100152.19
2022-10-05T09:57:32.429Z,100158.13
2022-10-05T10:00:39.012Z,100165.81
2022-10-05T10:04:07.151Z,100161.16
2022-10-05T10:07:21.222Z,100172.94
2022-10-05T10:10:30.414Z,100170.97
2022-10-05T10:13:33.056Z,100162.88
2022-10-05T10:16:37.636Z,100171.50
2022-10-05T10:20:09.491Z,100169.06
2022-10-05T10:22:55.023Z,100170.00
2022-10-05T10:26:31.083Z,100175.13
2022-10-05T10:32:39.451Z,100170.44
2022-10-05T10:35:32.256Z,100177.28
2022-10-05T10:38:59.662Z,100172.03
2022-10-05T10:42:09.299Z,100174.66
2022-10-05T10:45:19.756Z,100176.06
2022-10-05T10:48:05.422Z,100187.22
2022-10-05T10:51:15.484Z,100189.59
2022-10-05T10:54:04.081Z,100198.19
2022-10-05T10:57:10.212Z,100212.91
2022-10-05T11:00:44.275Z,100204.63
2022-10-05T11:03:53.831Z,100215.41
2022-10-05T11:06:53.535Z,100223.13
2022-10-05T11:09:57.313Z,100214.28
2022-10-05T11:13:07.248Z,100220.22
2022-10-05T11:16:23.278Z,100215.44
2022-10-05T11:20:05.410Z,100219.03
2022-10-05T11:23:28.802Z,100223.50
2022-10-05T11:26:32.617Z,100214.78
2022-10-05T11:29:49.361Z,100209.50
2022-10-05T11:33:11.340Z,100220.63
2022-10-05T11:36:07.109Z,100211.00
2022-10-05T11:39:20.748Z,100208.13
2022-10-05T11:42:21.467Z,100206.66
2022-10-05T11:45:36.419Z,100195.72
2022-10-05T11:48:32.102Z,100201.25
2022-10-05T11:51:31.145Z,100216.78
2022-10-05T11:55:05.960Z,100227.91
2022-10-05T11:57:51.458Z,100223.53
2022-10-05T12:01:04.161Z,100211.78
2022-10-05T12:03:58.862Z,100211.72
2022-10-05T12:07:02.895Z,100220.56
2022-10-05T12:10:22.807Z,100228.88
2022-10-05T12:13:39.320Z,100227.50
2022-10-05T12:16:36.354Z,100236.63
2022-10-05T12:19:29.873Z,100241.63
2022-10-05T12:22:21.610Z,100281.28
2022-10-05T12:25:40.508Z,100277.50
2022-10-05T12:28:38.827Z,100282.81
2022-10-05T12:31:39.597Z,100299.16
2022-10-05T12:34:48.723Z,100300.56
2022-10-05T12:37:52.407Z,100318.38
2022-10-05T12:40:46.431Z,100306.31
2022-10-05T12:43:45.738Z,100314.22
2022-10-05T12:46:43.804Z,100323.81
2022-10-05T12:49:40.418Z,100323.00
2022-10-05T12:52:50.475Z,100329.09
2022-10-05T12:55:42.201Z,100335.06
2022-10-05T12:58:55.468Z,100346.25
2022-10-05T13:02:20.115Z,100376.78
2022-10-05T13:05:11.708Z,100373.66
2022-10-05T13:08:12.913Z,100372.91
2022-10-05T13:11:14.080Z,100384.28
2022-10-05T13:14:12.216Z,100408.66
2022-10-05T13:17:06.887Z,100400.88
2022-10-05T13:20:03.287Z,100396.53
2022-10-05T13:22:57.744Z,100392.19
2022-10-05T13:26:12.693Z,100399.06
2022-10-05T13:29:04.493Z,100425.13
2022-10-05T13:32:04.977Z,100427.72
2022-10-05T13:35:28.493Z,100413.88
2022-10-05T13:38:42.827Z,100420.00
2022-10-05T13:41:34.748Z,100411.31
2022-10-05T13:45:17.856Z,100421.63
2022-10-05T13:48:12.722Z,100413.72
2022-10-05T13:51:14.458Z,100425.72
2022-10-05T13:54:19.088Z,100417.72
2022-10-05T13:57:30.064Z,100413.13
2022-10-05T14:00:22.757Z,100402.47
2022-10-05T14:03:27.661Z,100405.63
2022-10-05T14:06:30.783Z,100393.22
2022-10-05T14:09:37.032Z,100403.22
2022-10-05T14:12:23.708Z,100400.47
2022-10-05T14:15:38.451Z,100408.06
2022-10-05T14:18:31.484Z,100391.56
2022-10-05T14:21:22.381Z,100395.94
2022-10-05T14:24:43.638Z,100402.75
2022-10-05T14:27:33.712Z,100406.94
2022-10-05T14:30:23.722Z,100421.59
2022-10-05T14:33:16.789Z,100416.28
2022-10-05T14:36:03.647Z,100420.84
2022-10-05T14:38:57.883Z,100425.16
2022-10-05T14:41:49.124Z,100436.41
2022-10-05T14:44:34.419Z,100439.16
2022-10-05T14:47:24.287Z,100434.47
2022-10-05T14:50:49.514Z,100440.28
2022-10-05T14:53:56.598Z,100444.41
2022-10-05T14:56:45.452Z,100456.78
2022-10-05T15:00:19.266Z,100465.81
2022-10-05T15:03:16.375Z,100469.31
2022-10-05T15:06:03.856Z,100462.19
2022-10-05T15:08:54.460Z,100475.88
2022-10-05T15:11:50.321Z,100485.16
2022-10-05T15:14:43.621Z,100473.44
2022-10-05T15:17:44.813Z,100485.53
2022-10-05T15:20:35.966Z,100484.63
2022-10-05T15:23:32.106Z,100507.63
2022-10-05T15:26:23.442Z,100515.94
2022-10-05T15:29:30.577Z,100517.97
2022-10-05T15:32:28.934Z,100535.28
2022-10-05T15:35:30.012Z,100542.19
2022-10-05T15:38:25.907Z,100536.72
2022-10-05T15:41:18.175Z,100553.25
2022-10-05T15:44:36.494Z,100564.59
2022-10-05T15:47:46.582Z,100567.19
2022-10-05T15:50:48.022Z,100589.72
2022-10-05T15:53:47.064Z,100588.75
2022-10-05T15:56:38.914Z,100587.19
2022-10-05T15:59:35.490Z,100604.78
2022-10-05T16:02:44.508Z,100608.59
2022-10-05T16:05:57.876Z,100628.66
2022-10-05T16:09:14.421Z,100646.22
2022-10-05T16:12:09.865Z,100645.41
2022-10-05T16:15:06.609Z,100653.44
2022-10-05T16:18:23.247Z,100664.91
2022-10-05T16:21:30.787Z,100658.13
2022-10-05T16:24:19.496Z,100684.47
2022-10-05T16:27:16.270Z,100696.94
2022-10-05T16:30:13.732Z,100708.44
2022-10-05T16:33:21.515Z,100708.53
2022-10-05T16:36:10.342Z,100737.34
2022-10-05T16:39:06.123Z,100739.13
2022-10-05T16:42:15.314Z,100741.81
2022-10-05T16:45:19.727Z,100761.03
2022-10-05T16:48:34.428Z,100758.44
2022-10-05T16:51:20.040Z,100784.59
2022-10-05T16:54:20.323Z,100788.06
2022-10-05T16:57:05.890Z,100795.91
2022-10-05T16:59:57.361Z,100802.03
2022-10-05T17:03:10.326Z,100812.44
2022-10-05T17:05:58.895Z,100822.06
2022-10-05T17:09:04.901Z,100826.41
2022-10-05T17:12:14.425Z,100830.75
2022-10-05T17:15:15.217Z,100841.19
2022-10-05T17:18:19.216Z,100848.16
2022-10-05T17:21:34.856Z,100863.81
2022-10-05T17:24:26.282Z,100881.16
2022-10-05T17:27:47.616Z,100888.94
2022-10-05T17:30:48.687Z,100906.31
2022-10-05T17:33:55.047Z,100909.75
2022-10-05T17:36:49.594Z,100908.00
2022-10-05T17:39:53.069Z,100921.88
2022-10-05T17:42:38.797Z,100933.13
2022-10-05T17:45:44.048Z,100934.81
2022-10-05T17:48:37.384Z,100948.72
2022-10-05T17:51:47.041Z,100960.84
2022-10-05T17:55:11.493Z,100979.91
2022-10-05T17:58:00.522Z,100992.91
2022-10-05T18:00:58.011Z,100998.03
2022-10-05T18:03:48.134Z,101016.22
2022-10-05T18:06:39.434Z,101021.41
2022-10-05T18:09:26.093Z,101043.06
2022-10-05T18:12:26.497Z,101052.63
2022-10-05T18:15:24.193Z,101066.44
2022-10-05T18:18:56.517Z,101066.34
2022-10-05T18:22:03.424Z,101080.16
2022-10-05T18:25:19.479Z,101093.13
2022-10-05T18:28:08.045Z,101104.31
2022-10-05T18:31:16.390Z,101131.13
2022-10-05T18:34:31.465Z,101125.06
2022-10-05T18:37:42.689Z,101137.13
2022-10-05T18:40:31.373Z,101136.22
2022-10-05T18:43:32.230Z,101148.28
2022-10-05T18:46:23.825Z,101158.75
2022-10-05T18:49:40.282Z,101166.50
2022-10-05T18:52:41.094Z,101175.09
2022-10-05T18:55:42.671Z,101182.84
2022-10-05T18:59:06.096Z,101192.41
2022-10-05T19:02:20.219Z,101194.06
2022-10-05T19:09:06.053Z,101207.00
2022-10-05T19:12:00.509Z,101197.44
2022-10-05T19:15:09.924Z,101209.59
2022-10-05T19:18:29.066Z,101220.03
2022-10-05T19:21:29.642Z,101225.19
2022-10-05T19:24:42.684Z,101231.19
2022-10-05T19:27:54.486Z,101241.53
2022-10-05T19:30:57.335Z,101256.28
2022-10-05T19:34:20.175Z,101261.38
2022-10-05T19:37:14.696Z,101273.47
2022-10-05T19:40:35.519Z,101284.69
2022-10-05T19:43:35.532Z,101284.63
2022-10-05T19:46:47.395Z,101292.41
2022-10-05T19:49:56.940Z,101307.00
2022-10-05T19:52:49.125Z,101312.16
2022-10-05T19:55:41.738Z,101314.72
2022-10-05T19:58:31.770Z,101315.59
2022-10-05T20:01:31.508Z,101317.34
2022-10-05T20:04:43.242Z,101340.69
2022-10-05T20:07:28.630Z,101340.69
2022-10-05T20:10:31.246Z,101357.97
2022-10-05T20:13:23.209Z,101354.50
2022-10-05T20:16:47.388Z,101362.25
2022-10-05T20:19:51.546Z,101373.44
2022-10-05T20:22:48.511Z,101375.19
2022-10-05T20:25:37.299Z,101392.38
2022-10-05T20:28:33.483Z,101394.88
2022-10-05T20:31:20.299Z,101402.59
2022-10-05T20:34:06.208Z,101415.44
2022-10-05T20:36:52.362Z,101424.91
2022-10-05T20:39:38.508Z,101420.53
2022-10-05T20:42:23.918Z,101431.72
2022-10-05T20:45:10.882Z,101447.25
2022-10-05T20:47:56.341Z,101456.72
2022-10-05T20:50:41.736Z,101466.06
2022-10-05T20:53:27.112Z,101471.16
2022-10-05T20:56:12.592Z,101482.41
2022-10-05T20:58:58.593Z,101491.00
2022-10-05T21:01:48.111Z,101502.19
2022-10-05T21:04:40.832Z,101504.66
2022-10-05T21:07:26.848Z,101508.91
2022-10-05T21:10:13.090Z,101514.88
2022-10-05T21:13:00.341Z,101521.09
2022-10-05T21:15:45.930Z,101528.16
2022-10-05T21:18:31.553Z,101518.59
2022-10-05T21:21:18.067Z,101523.91
2022-10-05T21:24:04.197Z,101530.03
2022-10-05T21:26:49.807Z,101524.09
2022-10-05T21:29:36.598Z,101518.94
2022-10-05T21:32:22.106Z,101524.25
2022-10-05T21:35:07.781Z,101524.28
2022-10-05T21:37:53.071Z,101529.50
2022-10-05T21:40:38.583Z,101542.63
2022-10-05T21:43:24.447Z,101546.25
2022-10-05T21:46:13.078Z,101539.38
2022-10-05T21:48:58.613Z,101543.72
2022-10-05T21:51:44.926Z,101546.38
2022-10-05T21:54:32.478Z,101555.13
2022-10-05T21:57:18.742Z,101556.00
2022-10-05T22:00:08.159Z,101561.25
2022-10-05T22:02:53.559Z,101563.03
2022-10-05T22:05:39.314Z,101564.78
2022-10-05T22:08:31.935Z,101579.53
2022-10-05T22:11:18.370Z,101583.06
2022-10-05T22:14:04.201Z,101577.91
2022-10-05T22:16:49.924Z,101578.00
2022-10-05T22:19:35.481Z,101583.13
2022-10-05T22:22:22.187Z,101585.03
2022-10-05T22:25:08.407Z,101579.97
2022-10-05T22:27:53.813Z,101580.94
2022-10-05T22:30:39.760Z,101580.00
2022-10-05T22:33:25.728Z,101581.84
2022-10-05T22:36:11.413Z,101584.47
2022-10-05T22:38:56.984Z,101581.03
2022-10-05T22:41:42.852Z,101584.53
2022-10-05T22:44:28.401Z,101590.50
2022-10-05T22:47:14.017Z,101592.31
2022-10-05T22:50:00.195Z,101597.59
2022-10-05T22:52:48.784Z,101591.59
2022-10-05T22:55:34.478Z,101604.53
2022-10-05T22:58:19.777Z,101611.41
2022-10-05T23:01:08.619Z,101606.19
2022-10-05T23:03:55.741Z,101612.22
2022-10-05T23:06:41.025Z,101616.50
2022-10-05T23:09:26.549Z,101618.47
2022-10-05T23:12:13.422Z,101621.06
2022-10-05T23:14:58.833Z,101614.31
2022-10-05T23:17:44.236Z,101618.63
2022-10-05T23:20:29.649Z,101622.97
2022-10-05T23:23:14.868Z,101618.66
2022-10-05T23:26:01.428Z,101615.97
2022-10-05T23:28:47.519Z,101625.41
2022-10-05T23:31:33.736Z,101630.59
2022-10-05T23:34:19.203Z,101628.00
2022-10-05T23:37:04.732Z,101645.22
2022-10-05T23:39:50.424Z,101639.06
2022-10-05T23:42:35.901Z,101639.91
2022-10-05T23:45:21.689Z,101639.25
2022-10-05T23:48:06.979Z,101647.19
2022-10-05T23:50:53.333Z,101644.53
2022-10-05T23:53:39.482Z,101645.50
2022-10-05T23:56:24.869Z,101639.47
2022-10-05T23:59:10.252Z,101643.97
